Time;durP1;ratioP1;P1;durP2;ratioP2;P2;SDS_P1;SDS_P2;PMS_P1;PMS_P2;Temp;Humidity;BMP_temperature;BMP_pressure;BME280_temperature;BME280_humidity;BME280_pressure;Samples;Min_cycle;Max_cycle;Signal;HPM_P1;HPM_P2
2023/04/06 00:03:12;;;;;;;;;;;;;;;4.68;66.27734;101916;;;;-73
2023/04/06 00:08:12;;;;;;;;;;;;;;;4.62;66.13867;101910.5;;;;-73
2023/04/06 00:13:12;;;;;;;;;;;;;;;4.58;66.15332;101907.7;;;;-73
2023/04/06 00:18:12;;;;;;;;;;;;;;;4.55;65.91797;101899.7;;;;-75
2023/04/06 00:23:15;;;;;;;;;;;;;;;4.5;66.19531;101898.3;;;;-73
2023/04/06 00:23:24;;;;;;;13.5;5.7;;;;;;;;;;;;;-73
2023/04/06 00:28:12;;;;;;;;;;;;;;;4.48;66.10547;101891.3;;;;-74
2023/04/06 00:33:12;;;;;;;;;;;;;;;4.45;66.16699;101889.4;;;;-74
2023/04/06 00:38:12;;;;;;;;;;;;;;;4.44;66.00098;101881.6;;;;-73
2023/04/06 00:43:15;;;;;;;;;;;;;;;4.4;66.22363;101880.9;;;;-73
2023/04/06 00:48:13;;;;;;;;;;;;;;;4.41;65.91895;101874.8;;;;-72
2023/04/06 00:53:12;;;;;;;;;;;;;;;4.38;66.0127;101867.5;;;;-72
2023/04/06 00:53:24;;;;;;;12.1;5.8;;;;;;;;;;;;;-74
2023/04/06 00:58:12;;;;;;;;;;;;;;;4.41;65.74219;101863.5;;;;-73
2023/04/06 01:03:12;;;;;;;;;;;;;;;4.39;65.81738;101857.1;;;;-74
2023/04/06 01:08:12;;;;;;;;;;;;;;;4.38;65.67383;101849.1;;;;-73
2023/04/06 01:13:12;;;;;;;;;;;;;;;4.42;65.77734;101845.8;;;;-74
2023/04/06 01:18:13;;;;;;;;;;;;;;;4.41;65.77637;101840.3;;;;-74
2023/04/06 01:23:14;;;;;;;;;;;;;;;4.42;65.61426;101832.9;;;;-73
2023/04/06 01:23:34;;;;;;;14.5;5.9;;;;;;;;;;;;;-73
2023/04/06 01:28:12;;;;;;;;;;;;;;;4.43;65.56055;101829.5;;;;-73
2023/04/06 01:33:12;;;;;;;;;;;;;;;4.46;65.4873;101823.9;;;;-73
2023/04/06 01:38:15;;;;;;;;;;;;;;;4.48;65.39258;101814.4;;;;-74
2023/04/06 01:43:14;;;;;;;;;;;;;;;4.5;65.49414;101806.4;;;;-74
2023/04/06 01:48:14;;;;;;;;;;;;;;;4.52;65.40918;101800.8;;;;-73
2023/04/06 01:53:12;;;;;;;;;;;;;;;4.53;65.2793;101796.3;;;;-73
2023/04/06 01:53:24;;;;;;;12.2;5.2;;;;;;;;;;;;;-73
2023/04/06 01:58:12;;;;;;;;;;;;;;;4.55;65.41504;101795.1;;;;-73
2023/04/06 02:03:14;;;;;;;;;;;;;;;4.58;65.39551;101792.5;;;;-73
2023/04/06 02:08:12;;;;;;;;;;;;;;;4.62;65.31543;101786.8;;;;-73
2023/04/06 02:13:12;;;;;;;;;;;;;;;4.6;65.4873;101776.8;;;;-73
2023/04/06 02:18:12;;;;;;;;;;;;;;;4.63;65.45898;101773.7;;;;-74
2023/04/06 02:23:13;;;;;;;;;;;;;;;4.64;65.35059;101767;;;;-73
2023/04/06 02:23:25;;;;;;;11.6;5.2;;;;;;;;;;;;;-73
2023/04/06 02:28:13;;;;;;;;;;;;;;;4.65;65.43066;101762.8;;;;-73
2023/04/06 02:33:13;;;;;;;;;;;;;;;4.65;65.39746;101760;;;;-74
2023/04/06 02:38:12;;;;;;;;;;;;;;;4.67;65.50977;101758;;;;-72
2023/04/06 02:43:12;;;;;;;;;;;;;;;4.68;65.43457;101750.7;;;;-72
2023/04/06 02:48:15;;;;;;;;;;;;;;;4.7;65.38281;101743.6;;;;-72
2023/04/06 02:53:12;;;;;;;;;;;;;;;4.71;65.31836;101739.8;;;;-73
2023/04/06 02:53:29;;;;;;;9.8;5;;;;;;;;;;;;;-73
2023/04/06 02:58:20;;;;;;;;;;;;;;;4.72;65.26465;101729.5;;;;-73
2023/04/06 03:03:12;;;;;;;;;;;;;;;4.73;65.28809;101722.7;;;;-73
2023/04/06 03:08:12;;;;;;;;;;;;;;;4.73;65.30957;101718.9;;;;-74
2023/04/06 03:13:12;;;;;;;;;;;;;;;4.75;65.25879;101709;;;;-76
2023/04/06 03:18:12;;;;;;;;;;;;;;;4.75;65.2373;101708.8;;;;-73
2023/04/06 03:23:12;;;;;;;;;;;;;;;4.76;65.19336;101707.6;;;;-73
2023/04/06 03:23:25;;;;;;;10.6;5;;;;;;;;;;;;;-73
2023/04/06 03:28:12;;;;;;;;;;;;;;;4.73;65.2002;101700.2;;;;-72
2023/04/06 03:33:13;;;;;;;;;;;;;;;4.73;65.34277;101694.1;;;;-71
2023/04/06 03:38:12;;;;;;;;;;;;;;;4.72;65.38672;101691.1;;;;-73
2023/04/06 03:43:16;;;;;;;;;;;;;;;4.72;65.34082;101688.7;;;;-75
2023/04/06 03:48:12;;;;;;;;;;;;;;;4.69;65.38086;101688.1;;;;-73
2023/04/06 03:53:13;;;;;;;;;;;;;;;4.67;65.46582;101682.5;;;;-73
2023/04/06 03:53:25;;;;;;;11.4;5.2;;;;;;;;;;;;;-74
2023/04/06 03:58:12;;;;;;;;;;;;;;;4.69;65.42578;101681.5;;;;-73
2023/04/06 04:03:15;;;;;;;;;;;;;;;4.67;65.34375;101677.3;;;;-73
2023/04/06 04:08:14;;;;;;;;;;;;;;;4.64;65.53711;101672.3;;;;-74
2023/04/06 04:13:16;;;;;;;;;;;;;;;4.65;65.50586;101671.9;;;;-73
2023/04/06 04:18:12;;;;;;;;;;;;;;;4.66;65.36426;101669.9;;;;-76
2023/04/06 04:23:15;;;;;;;;;;;;;;;4.65;65.64941;101664.8;;;;-74
2023/04/06 04:23:25;;;;;;;14.3;5.6;;;;;;;;;;;;;-74
2023/04/06 04:28:12;;;;;;;;;;;;;;;4.66;65.58496;101664.3;;;;-74
2023/04/06 04:33:12;;;;;;;;;;;;;;;4.67;65.49902;101664.6;;;;-74
2023/04/06 04:38:12;;;;;;;;;;;;;;;4.67;65.74023;101661.2;;;;-74
2023/04/06 04:43:13;;;;;;;;;;;;;;;4.67;65.67383;101661.8;;;;-74
2023/04/06 04:48:12;;;;;;;;;;;;;;;4.68;65.75195;101659.6;;;;-74
2023/04/06 04:53:16;;;;;;;;;;;;;;;4.72;65.74707;101653.6;;;;-74
2023/04/06 04:53:29;;;;;;;12.3;5.8;;;;;;;;;;;;;-75
2023/04/06 04:58:16;;;;;;;;;;;;;;;4.7;65.83203;101646.7;;;;-74
2023/04/06 05:03:12;;;;;;;;;;;;;;;4.73;66.04395;101647;;;;-73
2023/04/06 05:08:15;;;;;;;;;;;;;;;4.73;65.98926;101641.5;;;;-74
2023/04/06 05:13:12;;;;;;;;;;;;;;;4.75;66.1582;101643.6;;;;-73
2023/04/06 05:18:17;;;;;;;;;;;;;;;4.77;66.12793;101642;;;;-73
2023/04/06 05:23:12;;;;;;;;;;;;;;;4.8;66.06641;101643.3;;;;-72
2023/04/06 05:23:29;;;;;;;14.3;6.4;;;;;;;;;;;;;-73
2023/04/06 05:28:15;;;;;;;;;;;;;;;4.83;66.11426;101646.9;;;;-72
2023/04/06 05:33:12;;;;;;;;;;;;;;;4.83;66.20215;101638.5;;;;-73
2023/04/06 05:38:13;;;;;;;;;;;;;;;4.86;66.22852;101638.5;;;;-71
2023/04/06 05:43:12;;;;;;;;;;;;;;;4.88;66.1123;101632.5;;;;-74
2023/04/06 05:48:12;;;;;;;;;;;;;;;4.9;66.22461;101634.1;;;;-73
2023/04/06 05:53:12;;;;;;;;;;;;;;;4.92;66.08496;101631.8;;;;-72
2023/04/06 05:53:28;;;;;;;13.9;6.7;;;;;;;;;;;;;-74
2023/04/06 05:58:12;;;;;;;;;;;;;;;4.94;66.2627;101631.4;;;;-73
2023/04/06 06:03:12;;;;;;;;;;;;;;;4.96;66.05859;101627.8;;;;-73
2023/04/06 06:08:12;;;;;;;;;;;;;;;5;66.27246;101631.4;;;;-73
2023/04/06 06:13:12;;;;;;;;;;;;;;;5.04;66.11328;101635.5;;;;-74
2023/04/06 06:18:15;;;;;;;;;;;;;;;5.13;66.04004;101636.3;;;;-72
2023/04/06 06:23:13;;;;;;;;;;;;;;;5.26;66.15918;101634.5;;;;-74
2023/04/06 06:23:27;;;;;;;15;6.9;;;;;;;;;;;;;-73
2023/04/06 06:28:12;;;;;;;;;;;;;;;5.45;66.27539;101634.8;;;;-71
2023/04/06 06:33:14;;;;;;;;;;;;;;;5.76;65.92773;101634.4;;;;-73
2023/04/06 06:38:12;;;;;;;;;;;;;;;6.03;65.59473;101634;;;;-75
2023/04/06 06:43:12;;;;;;;;;;;;;;;6.25;65.03418;101631.1;;;;-73
2023/04/06 06:48:12;;;;;;;;;;;;;;;6.31;64.59082;101631.6;;;;-73
2023/04/06 06:53:15;;;;;;;;;;;;;;;6.33;64.61816;101630.7;;;;-74
2023/04/06 06:53:28;;;;;;;16.8;7.6;;;;;;;;;;;;;-72
2023/04/06 06:58:19;;;;;;;;;;;;;;;6.34;64.75098;101629.9;;;;-73
2023/04/06 07:03:12;;;;;;;;;;;;;;;6.36;64.6543;101627.2;;;;-73
2023/04/06 07:08:15;;;;;;;;;;;;;;;6.37;64.7998;101622.7;;;;-72
2023/04/06 07:13:14;;;;;;;;;;;;;;;6.41;64.89453;101609.4;;;;-72
2023/04/06 07:18:12;;;;;;;;;;;;;;;6.46;65.06543;101603;;;;-72
2023/04/06 07:23:12;;;;;;;;;;;;;;;6.52;65.15234;101602.6;;;;-73
2023/04/06 07:23:28;;;;;;;17.1;8.7;;;;;;;;;;;;;-73
2023/04/06 07:28:12;;;;;;;;;;;;;;;6.58;65.3584;101604.5;;;;-72
2023/04/06 07:33:13;;;;;;;;;;;;;;;6.62;65.72949;101603.7;;;;-75
2023/04/06 07:38:12;;;;;;;;;;;;;;;6.67;65.48242;101603.4;;;;-74
2023/04/06 07:43:12;;;;;;;;;;;;;;;6.75;65.86914;101601;;;;-75
2023/04/06 07:48:14;;;;;;;;;;;;;;;6.81;65.65918;101597.7;;;;-75
2023/04/06 07:53:12;;;;;;;;;;;;;;;6.93;65.69727;101601.8;;;;-73
2023/04/06 07:53:30;;;;;;;21.2;9.6;;;;;;;;;;;;;-73
2023/04/06 07:58:12;;;;;;;;;;;;;;;7.05;65.7832;101601.9;;;;-72
2023/04/06 08:03:13;;;;;;;;;;;;;;;7.19;65.17676;101593;;;;-72
2023/04/06 08:08:12;;;;;;;;;;;;;;;7.32;65.14063;101595.6;;;;-73
2023/04/06 08:13:12;;;;;;;;;;;;;;;7.44;65.14746;101594.7;;;;-72
2023/04/06 08:18:12;;;;;;;;;;;;;;;7.59;64.70703;101592.2;;;;-74
2023/04/06 08:23:12;;;;;;;;;;;;;;;7.71;64.75586;101590.8;;;;-75
2023/04/06 08:23:35;;;;;;;24.5;11;;;;;;;;;;;;;-76
2023/04/06 08:28:13;;;;;;;;;;;;;;;7.83;64.45508;101589.2;;;;-74
2023/04/06 08:33:12;;;;;;;;;;;;;;;8;64.36914;101591.9;;;;-74
2023/04/06 08:38:12;;;;;;;;;;;;;;;8.15;64.10449;101583.9;;;;-73
2023/04/06 08:43:13;;;;;;;;;;;;;;;8.28;64.05664;101583.7;;;;-72
2023/04/06 08:48:12;;;;;;;;;;;;;;;8.4;63.95215;101577.9;;;;-74
2023/04/06 08:53:12;;;;;;;;;;;;;;;8.56;63.75488;101584;;;;-74
2023/04/06 08:53:31;;;;;;;26.3;12.4;;;;;;;;;;;;;-73
2023/04/06 08:58:17;;;;;;;;;;;;;;;8.67;63.84863;101581;;;;-74
2023/04/06 09:03:16;;;;;;;;;;;;;;;8.77;63.59863;101584.1;;;;-72
2023/04/06 09:08:12;;;;;;;;;;;;;;;8.88;63.50488;101578.9;;;;-73
2023/04/06 09:13:13;;;;;;;;;;;;;;;8.99;63.47461;101576.4;;;;-74
2023/04/06 09:18:13;;;;;;;;;;;;;;;9.11;63.80371;101579.4;;;;-74
2023/04/06 09:23:21;;;;;;;;;;;;;;;9.26;63.80273;101582;;;;-75
2023/04/06 09:23:34;;;;;;;26;12;;;;;;;;;;;;;-75
2023/04/06 09:28:12;;;;;;;;;;;;;;;9.4;64.45605;101578.7;;;;-75
2023/04/06 09:33:12;;;;;;;;;;;;;;;9.49;64.81152;101582.3;;;;-75
2023/04/06 09:38:18;;;;;;;;;;;;;;;9.58;64.89258;101582.7;;;;-75
2023/04/06 09:43:13;;;;;;;;;;;;;;;9.64;65.56738;101583.2;;;;-74
2023/04/06 09:48:12;;;;;;;;;;;;;;;9.64;65.7334;101577.5;;;;-75
2023/04/06 09:53:18;;;;;;;;;;;;;;;9.67;66.22656;101577.8;;;;-75
2023/04/06 09:53:35;;;;;;;23.7;11.7;;;;;;;;;;;;;-73
2023/04/06 09:58:13;;;;;;;;;;;;;;;9.7;67.21777;101580.5;;;;-76
2023/04/06 10:03:19;;;;;;;;;;;;;;;9.7;67.31641;101584.1;;;;-74
2023/04/06 10:08:13;;;;;;;;;;;;;;;9.71;68.08203;101580.1;;;;-74
2023/04/06 10:13:14;;;;;;;;;;;;;;;9.71;68.8252;101584.3;;;;-73
2023/04/06 10:18:12;;;;;;;;;;;;;;;9.76;69.11035;101576.8;;;;-73
2023/04/06 10:23:19;;;;;;;;;;;;;;;9.82;68.78809;101573.1;;;;-73
2023/04/06 10:23:38;;;;;;;24.8;12.6;;;;;;;;;;;;;-73
2023/04/06 10:28:18;;;;;;;;;;;;;;;9.82;69.51758;101570.1;;;;-73
2023/04/06 10:33:21;;;;;;;;;;;;;;;9.9;69.97461;101568;;;;-73
2023/04/06 10:38:13;;;;;;;;;;;;;;;9.95;70.26172;101565.4;;;;-72
2023/04/06 10:43:16;;;;;;;;;;;;;;;10.04;70.47266;101560.3;;;;-72
2023/04/06 10:48:23;;;;;;;;;;;;;;;10.08;70.48047;101552.9;;;;-73
2023/04/06 10:53:12;;;;;;;;;;;;;;;10.09;71.24609;101547.9;;;;-75
2023/04/06 10:53:37;;;;;;;21;10.7;;;;;;;;;;;;;-74
2023/04/06 10:58:15;;;;;;;;;;;;;;;10.12;70.73047;101539.4;;;;-73
2023/04/06 11:03:12;;;;;;;;;;;;;;;10.08;71.40039;101536.4;;;;-73
2023/04/06 11:08:12;;;;;;;;;;;;;;;10.06;71.81836;101539.9;;;;-74
2023/04/06 11:13:12;;;;;;;;;;;;;;;10.11;70.9834;101529.7;;;;-74
2023/04/06 11:18:12;;;;;;;;;;;;;;;10.1;71.55859;101521.5;;;;-73
2023/04/06 11:23:12;;;;;;;;;;;;;;;10.16;71.28027;101514.6;;;;-72
2023/04/06 11:23:39;;;;;;;18.2;9.2;;;;;;;;;;;;;-73
2023/04/06 11:28:12;;;;;;;;;;;;;;;10.2;71.6416;101517.5;;;;-73
2023/04/06 11:33:12;;;;;;;;;;;;;;;10.08;71.67676;101513.7;;;;-73
2023/04/06 11:38:12;;;;;;;;;;;;;;;10.04;71.82617;101504.7;;;;-73
2023/04/06 11:43:15;;;;;;;;;;;;;;;10.05;71.7832;101503.9;;;;-73
2023/04/06 11:48:22;;;;;;;;;;;;;;;10.05;72.2373;101497.9;;;;-73
2023/04/06 11:53:12;;;;;;;;;;;;;;;10.01;72.24121;101493.3;;;;-74
2023/04/06 11:53:47;;;;;;;14.8;7.8;;;;;;;;;;;;;-73
2023/04/06 11:58:12;;;;;;;;;;;;;;;9.93;73.11523;101489.6;;;;-74
2023/04/06 12:03:12;;;;;;;;;;;;;;;9.84;73.99609;101483.1;;;;-72
2023/04/06 12:08:14;;;;;;;;;;;;;;;9.83;74.06152;101485.3;;;;-74
2023/04/06 12:13:12;;;;;;;;;;;;;;;9.66;75.88965;101489.9;;;;-74
2023/04/06 12:18:12;;;;;;;;;;;;;;;9.63;76.38086;101484.6;;;;-74
2023/04/06 12:23:14;;;;;;;;;;;;;;;9.61;76.64258;101482.2;;;;-73
2023/04/06 12:23:41;;;;;;;10.5;5.7;;;;;;;;;;;;;-74
2023/04/06 12:28:13;;;;;;;;;;;;;;;9.58;77.09082;101484.2;;;;-73
2023/04/06 12:33:12;;;;;;;;;;;;;;;9.53;76.62891;101477.4;;;;-72
2023/04/06 12:38:12;;;;;;;;;;;;;;;9.5;77.4541;101481.9;;;;-74
2023/04/06 12:43:13;;;;;;;;;;;;;;;9.4;77.86523;101473.3;;;;-73
2023/04/06 12:48:16;;;;;;;;;;;;;;;9.4;77.37988;101469.2;;;;-74
2023/04/06 12:53:13;;;;;;;;;;;;;;;9.41;78.17578;101465.1;;;;-73
2023/04/06 12:53:45;;;;;;;11.5;5.4;;;;;;;;;;;;;-74
2023/04/06 12:58:12;;;;;;;;;;;;;;;9.39;77.08105;101462.5;;;;-74
2023/04/06 13:03:12;;;;;;;;;;;;;;;9.33;77.14746;101462.4;;;;-74
2023/04/06 13:08:13;;;;;;;;;;;;;;;9.32;78.70117;101457.9;;;;-74
2023/04/06 13:13:28;;;;;;;;;;;;;;;9.28;79.25879;101448.3;;;;-73
2023/04/06 13:18:16;;;;;;;;;;;;;;;9.23;79.52441;101449.5;;;;-73
2023/04/06 13:23:13;;;;;;;;;;;;;;;9.17;81.24414;101445.7;;;;-75
2023/04/06 13:23:43;;;;;;;10.1;5.4;;;;;;;;;;;;;-73
2023/04/06 13:28:14;;;;;;;;;;;;;;;9.12;80.06738;101438.5;;;;-74
2023/04/06 13:33:12;;;;;;;;;;;;;;;9.05;81.50879;101436.1;;;;-74
2023/04/06 13:38:12;;;;;;;;;;;;;;;9.03;79.94043;101432.7;;;;-73
2023/04/06 13:43:12;;;;;;;;;;;;;;;9.03;80.89941;101431.2;;;;-73
2023/04/06 13:48:15;;;;;;;;;;;;;;;9.04;81.18555;101428;;;;-74
2023/04/06 13:53:12;;;;;;;;;;;;;;;8.93;81.14551;101421.7;;;;-75
2023/04/06 13:53:45;;;;;;;11;5.7;;;;;;;;;;;;;-73
2023/04/06 13:58:12;;;;;;;;;;;;;;;8.9;83.38574;101420.8;;;;-73
2023/04/06 14:03:14;;;;;;;;;;;;;;;8.84;82.83594;101416.9;;;;-73
2023/04/06 14:08:12;;;;;;;;;;;;;;;8.84;82.12012;101412.7;;;;-75
2023/04/06 14:13:12;;;;;;;;;;;;;;;8.78;84.46387;101414.2;;;;-74
2023/04/06 14:18:12;;;;;;;;;;;;;;;8.77;83.34082;101414.6;;;;-73
2023/04/06 14:23:12;;;;;;;;;;;;;;;8.74;82.00195;101414.8;;;;-72
2023/04/06 14:23:46;;;;;;;11.9;6.5;;;;;;;;;;;;;-75
2023/04/06 14:28:12;;;;;;;;;;;;;;;8.63;84.05176;101409.1;;;;-73
2023/04/06 14:38:12;;;;;;;;;;;;;;;8.66;82.18457;101408.6;;;;-75
2023/04/06 14:43:12;;;;;;;;;;;;;;;8.64;83.17188;101397.8;;;;-74
2023/04/06 14:48:12;;;;;;;;;;;;;;;8.6;83.74609;101389.3;;;;-73
2023/04/06 14:53:13;;;;;;;;;;;;;;;8.59;84.53711;101387.7;;;;-74
2023/04/06 14:53:50;;;;;;;12.2;6.5;;;;;;;;;;;;;-73
2023/04/06 14:58:13;;;;;;;;;;;;;;;8.59;83.81055;101389.8;;;;-73
2023/04/06 15:03:12;;;;;;;;;;;;;;;8.54;82.41504;101385.1;;;;-74
2023/04/06 15:08:14;;;;;;;;;;;;;;;8.53;83.17285;101383.9;;;;-73
2023/04/06 15:13:15;;;;;;;;;;;;;;;8.52;83.80762;101382.5;;;;-74
2023/04/06 15:18:12;;;;;;;;;;;;;;;8.49;82.625;101379.7;;;;-73
2023/04/06 15:23:12;;;;;;;;;;;;;;;8.45;82.50977;101371.8;;;;-73
2023/04/06 15:23:49;;;;;;;12.5;5.9;;;;;;;;;;;;;-74
2023/04/06 15:28:12;;;;;;;;;;;;;;;8.43;83.27441;101368.8;;;;-73
2023/04/06 15:33:12;;;;;;;;;;;;;;;8.39;84.11523;101362.1;;;;-73
2023/04/06 15:38:13;;;;;;;;;;;;;;;8.34;83.54297;101360.8;;;;-73
2023/04/06 15:43:12;;;;;;;;;;;;;;;8.29;84.32422;101354.6;;;;-73
2023/04/06 15:48:12;;;;;;;;;;;;;;;8.27;85.2002;101354;;;;-72
2023/04/06 15:53:15;;;;;;;;;;;;;;;8.23;84.46777;101353.2;;;;-73
2023/04/06 15:53:50;;;;;;;13.1;5.5;;;;;;;;;;;;;-71
2023/04/06 15:58:12;;;;;;;;;;;;;;;8.24;85.41504;101349.5;;;;-74
2023/04/06 16:03:12;;;;;;;;;;;;;;;8.22;84.95898;101351.2;;;;-73
2023/04/06 16:08:13;;;;;;;;;;;;;;;8.23;84.21484;101349.2;;;;-72
2023/04/06 16:13:12;;;;;;;;;;;;;;;8.16;86.38867;101342;;;;-74
2023/04/06 16:18:12;;;;;;;;;;;;;;;8.18;85.6123;101342.8;;;;-73
2023/04/06 16:23:15;;;;;;;;;;;;;;;8.15;86.58301;101342.8;;;;-74
2023/04/06 16:23:51;;;;;;;8.2;4.7;;;;;;;;;;;;;-72
2023/04/06 16:28:12;;;;;;;;;;;;;;;8.13;87.35938;101345.9;;;;-74
2023/04/06 16:33:15;;;;;;;;;;;;;;;8.15;85.69336;101344;;;;-74
2023/04/06 16:38:12;;;;;;;;;;;;;;;8.14;87.30566;101338.2;;;;-73
2023/04/06 16:43:13;;;;;;;;;;;;;;;8.12;87.04785;101327.1;;;;-74
2023/04/06 16:48:12;;;;;;;;;;;;;;;8.15;87.20898;101325.9;;;;-73
2023/04/06 16:53:12;;;;;;;;;;;;;;;8.14;87.29492;101333.7;;;;-73
2023/04/06 16:53:54;;;;;;;8.8;4.4;;;;;;;;;;;;;-72
2023/04/06 16:58:12;;;;;;;;;;;;;;;8.13;86.19531;101333.3;;;;-73
2023/04/06 17:03:12;;;;;;;;;;;;;;;8.12;86.43359;101331.7;;;;-73
2023/04/06 17:08:12;;;;;;;;;;;;;;;8.1;85.80371;101329.2;;;;-73
2023/04/06 17:13:12;;;;;;;;;;;;;;;8.11;87.94824;101339.1;;;;-72
2023/04/06 17:18:15;;;;;;;;;;;;;;;8.1;88.61621;101336.8;;;;-73
2023/04/06 17:23:12;;;;;;;;;;;;;;;8.08;87.26172;101338.6;;;;-73
2023/04/06 17:23:53;;;;;;;7.5;4.3;;;;;;;;;;;;;-73
2023/04/06 17:28:12;;;;;;;;;;;;;;;8.11;87.00195;101340.3;;;;-72
2023/04/06 17:33:12;;;;;;;;;;;;;;;8.09;89.14941;101344.3;;;;-72
2023/04/06 17:38:13;;;;;;;;;;;;;;;8.07;87.77441;101346.5;;;;-73
2023/04/06 17:43:12;;;;;;;;;;;;;;;8.08;88.5332;101350.8;;;;-74
2023/04/06 17:48:12;;;;;;;;;;;;;;;8.08;89.20313;101359;;;;-73
2023/04/06 17:53:12;;;;;;;;;;;;;;;8.04;88.53711;101357.6;;;;-74
2023/04/06 17:53:56;;;;;;;8;4.8;;;;;;;;;;;;;-73
2023/04/06 17:58:12;;;;;;;;;;;;;;;8.04;89.05273;101354.5;;;;-74
2023/04/06 18:03:13;;;;;;;;;;;;;;;8.03;90.37793;101354.6;;;;-73
2023/04/06 18:08:13;;;;;;;;;;;;;;;8.05;93.20117;101366.1;;;;-72
2023/04/06 18:13:12;;;;;;;;;;;;;;;8.03;90.29004;101368.5;;;;-72
2023/04/06 18:18:15;;;;;;;;;;;;;;;8.07;89.44238;101370.3;;;;-73
2023/04/06 18:23:12;;;;;;;;;;;;;;;8.06;88.91406;101370.1;;;;-73
2023/04/06 18:23:57;;;;;;;8.8;5.2;;;;;;;;;;;;;-73
2023/04/06 18:28:12;;;;;;;;;;;;;;;8.04;88.97559;101369.7;;;;-74
2023/04/06 18:33:12;;;;;;;;;;;;;;;8.03;88.68848;101369.1;;;;-71
2023/04/06 18:38:12;;;;;;;;;;;;;;;8.03;87.63574;101374;;;;-75
2023/04/06 18:43:12;;;;;;;;;;;;;;;8.05;89.38379;101374.1;;;;-73
2023/04/06 18:48:12;;;;;;;;;;;;;;;8.03;87.875;101376.4;;;;-73
2023/04/06 18:53:14;;;;;;;;;;;;;;;8.04;88.12012;101384.9;;;;-73
2023/04/06 18:53:57;;;;;;;10.6;6.5;;;;;;;;;;;;;-73
2023/04/06 18:58:12;;;;;;;;;;;;;;;8.05;89.13184;101389.9;;;;-72
2023/04/06 19:03:12;;;;;;;;;;;;;;;8.04;89.11816;101384.6;;;;-74
2023/04/06 19:08:12;;;;;;;;;;;;;;;8.04;87.57129;101388;;;;-74
2023/04/06 19:13:12;;;;;;;;;;;;;;;8.06;91.41602;101387.8;;;;-73
2023/04/06 19:18:12;;;;;;;;;;;;;;;8.04;87.49414;101395;;;;-73
2023/04/06 19:23:12;;;;;;;;;;;;;;;8.04;87.95508;101394.8;;;;-73
2023/04/06 19:24:00;;;;;;;11.6;6.9;;;;;;;;;;;;;-74
2023/04/06 19:28:13;;;;;;;;;;;;;;;8.07;89.67285;101399.8;;;;-73
2023/04/06 19:33:15;;;;;;;;;;;;;;;8.05;87.39941;101403.2;;;;-75
2023/04/06 19:38:12;;;;;;;;;;;;;;;8.09;89.77734;101409.5;;;;-73
2023/04/06 19:43:12;;;;;;;;;;;;;;;8.05;87.00391;101412.6;;;;-74
2023/04/06 19:48:15;;;;;;;;;;;;;;;8.08;89.52246;101419.5;;;;-74
2023/04/06 19:53:14;;;;;;;;;;;;;;;8.09;89.3916;101419.5;;;;-74
2023/04/06 19:53:59;;;;;;;16.4;9;;;;;;;;;;;;;-75
2023/04/06 19:58:13;;;;;;;;;;;;;;;8.1;89.11914;101423.3;;;;-72
2023/04/06 20:03:18;;;;;;;;;;;;;;;8.13;88.61035;101431.7;;;;-72
2023/04/06 20:08:12;;;;;;;;;;;;;;;8.16;88.44043;101436.6;;;;-72
2023/04/06 20:13:12;;;;;;;;;;;;;;;8.16;87.5752;101439.3;;;;-74
2023/04/06 20:18:12;;;;;;;;;;;;;;;8.17;87.04785;101444;;;;-74
2023/04/06 20:23:12;;;;;;;;;;;;;;;8.17;86.47656;101446.9;;;;-73
2023/04/06 20:24:01;;;;;;;10.9;5.9;;;;;;;;;;;;;-73
2023/04/06 20:28:12;;;;;;;;;;;;;;;8.18;86.95313;101448.9;;;;-73
2023/04/06 20:33:12;;;;;;;;;;;;;;;8.18;87.09375;101453.2;;;;-72
2023/04/06 20:38:12;;;;;;;;;;;;;;;8.19;87.16113;101459.6;;;;-73
2023/04/06 20:43:13;;;;;;;;;;;;;;;8.2;87.99805;101463.2;;;;-73
2023/04/06 20:48:12;;;;;;;;;;;;;;;8.18;88.11523;101466.9;;;;-74
2023/04/06 20:53:12;;;;;;;;;;;;;;;8.17;87.75098;101475.4;;;;-71
2023/04/06 20:54:01;;;;;;;8.7;3.8;;;;;;;;;;;;;-72
2023/04/06 20:58:12;;;;;;;;;;;;;;;8.16;88.65039;101474.1;;;;-74
2023/04/06 21:03:12;;;;;;;;;;;;;;;8.15;87.57129;101471;;;;-75
2023/04/06 21:08:12;;;;;;;;;;;;;;;8.15;88.44922;101477.3;;;;-73
2023/04/06 21:13:12;;;;;;;;;;;;;;;8.13;86.92188;101478.5;;;;-74
2023/04/06 21:18:16;;;;;;;;;;;;;;;8.13;87.75391;101476.6;;;;-73
2023/04/06 21:23:15;;;;;;;;;;;;;;;8.13;87.07324;101481.8;;;;-73
2023/04/06 21:24:02;;;;;;;6.3;2.8;;;;;;;;;;;;;-72
2023/04/06 21:28:15;;;;;;;;;;;;;;;8.13;86.6123;101485.2;;;;-73
2023/04/06 21:33:12;;;;;;;;;;;;;;;8.12;86.60938;101485.3;;;;-72
2023/04/06 21:38:12;;;;;;;;;;;;;;;8.11;86.3457;101483.1;;;;-72
2023/04/06 21:43:13;;;;;;;;;;;;;;;8.1;86.15527;101481.6;;;;-73
2023/04/06 21:48:12;;;;;;;;;;;;;;;8.1;86.08887;101483.4;;;;-72
2023/04/06 21:53:12;;;;;;;;;;;;;;;8.07;86.36914;101477.7;;;;-73
2023/04/06 21:54:03;;;;;;;7.8;2.7;;;;;;;;;;;;;-73
2023/04/06 21:58:13;;;;;;;;;;;;;;;8.08;86.10742;101484.7;;;;-74
2023/04/06 22:03:12;;;;;;;;;;;;;;;8.06;86.65332;101487.7;;;;-74
2023/04/06 22:08:12;;;;;;;;;;;;;;;8.04;86.25391;101492.9;;;;-73
2023/04/06 22:13:13;;;;;;;;;;;;;;;8.04;86.56152;101492.7;;;;-74
2023/04/06 22:18:12;;;;;;;;;;;;;;;8.02;86.51172;101491.7;;;;-72
2023/04/06 22:23:12;;;;;;;;;;;;;;;8;86.44238;101502.6;;;;-72
2023/04/06 22:24:07;;;;;;;4.9;1.9;;;;;;;;;;;;;-73
2023/04/06 22:28:12;;;;;;;;;;;;;;;7.99;86.25391;101500;;;;-72
2023/04/06 22:33:12;;;;;;;;;;;;;;;7.96;86.31641;101497.5;;;;-72
2023/04/06 22:38:13;;;;;;;;;;;;;;;7.95;86.93848;101502.1;;;;-72
2023/04/06 22:43:12;;;;;;;;;;;;;;;7.94;86.0918;101509.8;;;;-72
2023/04/06 22:48:12;;;;;;;;;;;;;;;7.93;86.29785;101513.4;;;;-73
2023/04/06 22:53:14;;;;;;;;;;;;;;;7.93;85.83496;101524.2;;;;-73
2023/04/06 22:54:05;;;;;;;3.7;1.6;;;;;;;;;;;;;-72
2023/04/06 22:58:12;;;;;;;;;;;;;;;7.91;85.67773;101526.9;;;;-73
2023/04/06 23:03:12;;;;;;;;;;;;;;;7.89;85.40137;101529.3;;;;-73
2023/04/06 23:08:12;;;;;;;;;;;;;;;7.86;85.24316;101526.3;;;;-73
2023/04/06 23:13:12;;;;;;;;;;;;;;;7.86;85.50586;101528.8;;;;-73
2023/04/06 23:18:12;;;;;;;;;;;;;;;7.85;85.03027;101531.2;;;;-73
2023/04/06 23:23:12;;;;;;;;;;;;;;;7.85;85.52441;101527.1;;;;-72
2023/04/06 23:24:06;;;;;;;5.2;1.7;;;;;;;;;;;;;-73
2023/04/06 23:28:12;;;;;;;;;;;;;;;7.84;85.74219;101528.5;;;;-73
2023/04/06 23:33:12;;;;;;;;;;;;;;;7.83;86.25781;101523.3;;;;-73
2023/04/06 23:38:12;;;;;;;;;;;;;;;7.83;85.72754;101523.2;;;;-73
2023/04/06 23:43:11;;;;;;;;;;;;;;;7.84;86.5;101524.6;;;;-72
2023/04/06 23:48:12;;;;;;;;;;;;;;;7.82;85.80273;101529.8;;;;-74
2023/04/06 23:53:12;;;;;;;;;;;;;;;7.82;85.69336;101536.5;;;;-74
2023/04/06 23:54:08;;;;;;;6.1;2.2;;;;;;;;;;;;;-74
2023/04/06 23:58:12;;;;;;;;;;;;;;;7.81;86.1084;101541.2;;;;-73
